Time;durP1;ratioP1;P1;durP2;ratioP2;P2;SDS_P1;SDS_P2;PMS_P1;PMS_P2;Temp;Humidity;BMP_temperature;BMP_pressure;BME280_temperature;BME280_humidity;BME280_pressure;Samples;Min_cycle;Max_cycle;Signal;HPM_P1;HPM_P2
2022/03/25 00:01:57;;;;;;;43.30;27.40;;;12.50;1.00;;;;;;6161124;23;20588;-83
2022/03/25 00:04:23;;;;;;;42.90;28.37;;;12.40;1.00;;;;;;6188285;23;20446;-84
2022/03/25 00:06:49;;;;;;;45.37;29.63;;;12.40;1.00;;;;;;6189400;23;20146;-81
2022/03/25 00:09:15;;;;;;;40.73;27.27;;;12.40;1.00;;;;;;6211357;22;20130;-78
2022/03/25 00:11:41;;;;;;;46.40;28.37;;;12.40;1.00;;;;;;6207708;23;20189;-82
2022/03/25 00:14:07;;;;;;;42.17;29.30;;;12.30;1.00;;;;;;6195976;23;20567;-83
2022/03/25 00:16:33;;;;;;;43.17;29.40;;;12.30;1.00;;;;;;6187944;23;20138;-83
2022/03/25 00:18:59;;;;;;;42.33;29.60;;;12.30;1.00;;;;;;6188203;23;20196;-83
2022/03/25 00:21:25;;;;;;;41.20;28.43;;;12.30;1.00;;;;;;6188660;23;20189;-82
2022/03/25 00:23:50;;;;;;;46.50;29.27;;;12.20;1.00;;;;;;6189739;23;20145;-82
2022/03/25 00:26:16;;;;;;;38.63;28.70;;;12.20;1.00;;;;;;6210749;23;20149;-84
2022/03/25 00:28:42;;;;;;;48.37;29.30;;;12.30;1.00;;;;;;6206103;23;20138;-82
2022/03/25 00:31:07;;;;;;;45.60;30.67;;;12.30;1.00;;;;;;6196095;23;20154;-84
2022/03/25 00:33:43;;;;;;;44.90;30.87;;;12.20;1.00;;;;;;6161068;23;20236;-84
2022/03/25 00:36:10;;;;;;;43.77;29.90;;;12.20;1.00;;;;;;6187265;23;20180;-84
2022/03/25 00:38:36;;;;;;;44.93;30.30;;;12.10;6.00;;;;;;6186305;23;20137;-82
2022/03/25 00:41:06;;;;;;;46.57;30.07;;;12.10;37.50;;;;;;6185212;23;20176;-82
2022/03/25 00:43:34;;;;;;;41.97;30.07;;;12.10;66.10;;;;;;6189319;23;20578;-82
2022/03/25 00:46:01;;;;;;;48.07;30.20;;;12.20;31.90;;;;;;6190808;23;20237;-81
2022/03/25 00:48:27;;;;;;;43.10;29.13;;;12.10;41.00;;;;;;6194046;23;20157;-82
2022/03/25 00:50:54;;;;;;;42.07;28.93;;;12.10;99.90;;;;;;6189008;23;20571;-82
2022/03/25 00:53:20;;;;;;;48.23;29.90;;;12.00;99.90;;;;;;6186939;23;20556;-81
2022/03/25 00:55:45;;;;;;;47.80;30.87;;;11.90;99.90;;;;;;6186524;23;20177;-81
2022/03/25 00:58:11;;;;;;;45.67;31.90;;;12.00;99.90;;;;;;6186571;23;20138;-84
2022/03/25 01:00:37;;;;;;;46.53;31.30;;;11.90;99.90;;;;;;6186291;23;20444;-83
2022/03/25 01:03:03;;;;;;;44.17;29.43;;;11.90;99.90;;;;;;6186547;23;20169;-84
2022/03/25 01:05:30;;;;;;;41.90;30.17;;;11.90;99.90;;;;;;6186261;23;20578;-83
2022/03/25 01:07:55;;;;;;;44.57;30.60;;;11.80;1.00;;;;;;6185889;23;20145;-82
2022/03/25 01:10:23;;;;;;;42.63;30.33;;;11.80;1.00;;;;;;6186459;23;20159;-83
2022/03/25 01:12:48;;;;;;;48.90;32.37;;;11.70;1.00;;;;;;6186448;23;20252;-83
2022/03/25 01:15:14;;;;;;;48.37;32.40;;;11.80;1.00;;;;;;6186160;23;20137;-82
2022/03/25 01:17:40;;;;;;;46.60;30.13;;;11.70;1.00;;;;;;6186281;23;20231;-82
2022/03/25 01:20:06;;;;;;;41.03;31.27;;;11.60;17.60;;;;;;6186632;23;20141;-83
2022/03/25 01:22:32;;;;;;;48.00;31.27;;;11.70;99.90;;;;;;6160015;23;20209;-82
2022/03/25 01:24:58;;;;;;;43.90;31.60;;;11.70;1.00;;;;;;6186604;23;20192;-84
2022/03/25 01:27:24;;;;;;;41.73;30.90;;;11.70;1.00;;;;;;6186830;23;20142;-84
2022/03/25 01:29:50;;;;;;;48.80;32.43;;;11.80;1.00;;;;;;6187155;23;20498;-83
2022/03/25 01:32:16;;;;;;;46.87;33.70;;;11.70;1.00;;;;;;6187214;23;20227;-83
2022/03/25 01:34:42;;;;;;;48.67;33.67;;;11.70;1.00;;;;;;6186583;23;20130;-83
2022/03/25 01:37:08;;;;;;;49.37;32.40;;;11.70;96.30;;;;;;6186149;23;20138;-83
2022/03/25 01:39:33;;;;;;;46.23;32.47;;;11.60;99.90;;;;;;6186690;23;20217;-83
2022/03/25 01:41:59;;;;;;;51.07;32.47;;;11.50;99.90;;;;;;6186775;23;20563;-82
2022/03/25 01:44:28;;;;;;;50.47;33.20;;;11.40;1.00;;;;;;6187278;23;20142;-83
2022/03/25 01:46:55;;;;;;;48.70;33.17;;;11.30;63.20;;;;;;6162280;23;20178;-83
2022/03/25 01:49:22;;;;;;;46.07;32.60;;;11.20;99.90;;;;;;6190672;23;20142;-80
2022/03/25 01:51:51;;;;;;;47.53;34.03;;;11.20;1.00;;;;;;6162622;23;20154;-83
2022/03/25 01:54:23;;;;;;;49.73;32.63;;;11.20;1.00;;;;;;6187387;23;20138;-83
2022/03/25 01:56:55;;;;;;;45.60;33.83;;;11.30;1.00;;;;;;6187390;23;20170;-83
2022/03/25 01:59:22;;;;;;;52.90;34.53;;;11.10;96.50;;;;;;6189442;23;20189;-83
2022/03/25 02:01:48;;;;;;;49.00;34.73;;;11.10;99.90;;;;;;6189840;23;20205;-83
2022/03/25 02:04:14;;;;;;;50.67;34.00;;;11.10;1.00;;;;;;6196202;23;20142;-83
2022/03/25 02:06:40;;;;;;;50.97;35.47;;;11.10;1.00;;;;;;6192521;23;20145;-83
2022/03/25 02:09:05;;;;;;;48.97;33.77;;;11.10;1.00;;;;;;6194582;23;20130;-82
2022/03/25 02:11:32;;;;;;;55.60;34.73;;;11.00;65.40;;;;;;6195535;23;20134;-82
2022/03/25 02:13:58;;;;;;;52.90;35.97;;;11.10;1.20;;;;;;6196373;23;20150;-82
2022/03/25 02:16:38;;;;;;;56.50;35.17;;;11.10;1.00;;;;;;6194139;23;20586;-82
2022/03/25 02:19:05;;;;;;;50.43;34.67;;;11.10;99.90;;;;;;6189015;23;20467;-82
2022/03/25 02:21:34;;;;;;;49.47;34.43;;;11.10;1.00;;;;;;6190061;23;20196;-82
2022/03/25 02:24:01;;;;;;;53.67;35.17;;;11.00;99.90;;;;;;6189303;23;20519;-83
2022/03/25 02:26:27;;;;;;;48.63;35.00;;;11.10;99.90;;;;;;6193907;23;20145;-83
2022/03/25 02:28:54;;;;;;;51.60;36.33;;;11.00;99.90;;;;;;6196601;23;20141;-83
2022/03/25 02:31:20;;;;;;;52.57;36.30;;;11.00;1.00;;;;;;6174629;23;20221;-79
2022/03/25 02:33:46;;;;;;;51.43;35.60;;;11.00;1.00;;;;;;6210840;22;20141;-82
2022/03/25 02:36:12;;;;;;;54.63;36.80;;;10.90;99.90;;;;;;6196394;23;20607;-83
2022/03/25 02:38:37;;;;;;;51.57;35.30;;;11.10;99.90;;;;;;6190215;23;20140;-83
2022/03/25 02:41:14;;;;;;;55.23;36.20;;;11.00;1.00;;;;;;6187603;23;20166;-83
2022/03/25 02:43:40;;;;;;;57.23;36.80;;;11.10;1.00;;;;;;6186491;23;20197;-81
2022/03/25 02:46:06;;;;;;;53.50;37.83;;;11.00;99.90;;;;;;6186503;23;20167;-81
2022/03/25 02:48:32;;;;;;;54.23;37.70;;;10.90;1.00;;;;;;6189651;22;20166;-78
2022/03/25 02:50:58;;;;;;;56.07;37.80;;;10.90;99.90;;;;;;6187475;23;20138;-77
2022/03/25 02:53:24;;;;;;;53.67;37.73;;;10.80;1.00;;;;;;6196808;23;20228;-79
2022/03/25 02:55:56;;;;;;;56.70;38.10;;;10.80;1.00;;;;;;6187768;23;20257;-82
2022/03/25 02:58:22;;;;;;;52.63;36.30;;;10.70;1.00;;;;;;6194991;23;20161;-82
2022/03/25 03:00:48;;;;;;;55.63;39.67;;;10.70;99.90;;;;;;6196281;23;20727;-82
2022/03/25 03:03:14;;;;;;;53.60;38.03;;;10.60;99.90;;;;;;6161765;23;20181;-81
2022/03/25 03:05:40;;;;;;;59.33;40.37;;;10.50;1.00;;;;;;6159439;23;20149;-82
2022/03/25 03:08:06;;;;;;;59.13;38.97;;;10.60;1.00;;;;;;6185762;23;20138;-82
2022/03/25 03:10:33;;;;;;;61.73;40.50;;;10.60;1.00;;;;;;6185875;23;20217;-83
2022/03/25 03:12:59;;;;;;;57.13;38.93;;;10.50;1.00;;;;;;6186052;23;20633;-83
2022/03/25 03:15:25;;;;;;;57.93;38.63;;;10.60;1.00;;;;;;6186175;23;20142;-84
2022/03/25 03:17:52;;;;;;;61.43;41.27;;;10.40;1.00;;;;;;6185415;23;20593;-83
2022/03/25 03:20:20;;;;;;;57.53;40.10;;;10.60;1.00;;;;;;6186081;23;20138;-82
2022/03/25 03:22:47;;;;;;;61.20;41.17;;;10.50;1.00;;;;;;6185915;23;20189;-78
2022/03/25 03:25:13;;;;;;;58.07;39.63;;;10.50;99.90;;;;;;6186402;23;20130;-82
2022/03/25 03:27:40;;;;;;;57.90;40.87;;;10.50;40.50;;;;;;6185994;23;20249;-82
2022/03/25 03:30:08;;;;;;;64.57;42.20;;;10.40;99.90;;;;;;6185953;23;20160;-83
2022/03/25 03:32:34;;;;;;;58.73;40.03;;;10.30;1.00;;;;;;6187965;23;20166;-83
2022/03/25 03:35:00;;;;;;;56.00;38.87;;;10.40;1.00;;;;;;6187058;23;20193;-83
2022/03/25 03:37:26;;;;;;;56.50;39.57;;;10.20;1.00;;;;;;6162468;23;20142;-82
2022/03/25 03:39:52;;;;;;;59.40;41.30;;;10.30;1.00;;;;;;6187849;23;20141;-82
2022/03/25 03:42:18;;;;;;;56.13;39.77;;;10.30;1.00;;;;;;6189014;23;20181;-80
2022/03/25 03:44:43;;;;;;;64.43;43.43;;;10.20;1.00;;;;;;6187958;23;20192;-81
2022/03/25 03:47:10;;;;;;;58.30;40.47;;;10.20;1.00;;;;;;6187613;23;20266;-81
2022/03/25 03:49:37;;;;;;;61.17;40.53;;;10.30;1.00;;;;;;6187814;23;20134;-82
2022/03/25 03:52:04;;;;;;;61.97;39.77;;;10.30;1.00;;;;;;6187652;23;20134;-82
2022/03/25 03:54:32;;;;;;;64.30;42.33;;;10.20;1.00;;;;;;6187651;23;20138;-81
2022/03/25 03:56:58;;;;;;;64.13;40.93;;;10.10;96.80;;;;;;6187500;23;20161;-82
2022/03/25 03:59:25;;;;;;;62.40;40.30;;;10.00;99.90;;;;;;6187325;23;20144;-81
2022/03/25 04:01:51;;;;;;;60.40;40.17;;;10.00;99.90;;;;;;6186894;23;20200;-82
2022/03/25 04:04:17;;;;;;;64.67;41.83;;;10.00;99.90;;;;;;6187108;23;20138;-83
2022/03/25 04:06:44;;;;;;;63.60;41.40;;;10.00;99.90;;;;;;6187207;23;20543;-80
2022/03/25 04:09:09;;;;;;;60.07;40.47;;;10.10;99.90;;;;;;6187046;23;20605;-81
2022/03/25 04:11:35;;;;;;;60.23;41.17;;;9.90;99.90;;;;;;6188368;23;20165;-82
2022/03/25 04:14:01;;;;;;;59.53;39.17;;;9.90;99.90;;;;;;6187680;23;20141;-82
2022/03/25 04:16:28;;;;;;;61.80;42.10;;;9.90;99.90;;;;;;6186674;23;20211;-83
2022/03/25 04:18:55;;;;;;;59.33;40.03;;;9.90;99.90;;;;;;6186844;23;20130;-81
2022/03/25 04:21:21;;;;;;;64.70;41.33;;;10.00;99.90;;;;;;6160936;23;20634;-83
2022/03/25 04:23:47;;;;;;;64.00;42.17;;;9.90;99.90;;;;;;6187399;23;20196;-83
2022/03/25 04:26:13;;;;;;;65.27;41.60;;;9.80;99.90;;;;;;6161203;23;20477;-82
2022/03/25 04:28:38;;;;;;;60.77;40.87;;;9.80;99.90;;;;;;6187469;23;20157;-81
2022/03/25 04:31:04;;;;;;;58.63;40.27;;;9.80;99.90;;;;;;6186966;23;20154;-84
2022/03/25 04:33:32;;;;;;;62.63;41.80;;;9.80;99.90;;;;;;6187664;23;20150;-81
2022/03/25 04:35:58;;;;;;;63.73;41.87;;;9.80;99.90;;;;;;6161161;23;20146;-82
2022/03/25 04:38:23;;;;;;;63.20;41.50;;;9.80;99.90;;;;;;6161100;23;20138;-81
2022/03/25 04:40:49;;;;;;;62.97;41.60;;;9.80;99.90;;;;;;6187463;23;20609;-81
2022/03/25 04:43:15;;;;;;;65.37;41.83;;;9.80;99.90;;;;;;6188047;23;20680;-82
2022/03/25 04:45:41;;;;;;;61.93;41.23;;;9.70;99.90;;;;;;6187219;23;20575;-82
2022/03/25 04:48:10;;;;;;;59.00;40.73;;;9.70;99.90;;;;;;6187682;23;20224;-83
2022/03/25 04:50:37;;;;;;;63.87;41.27;;;9.70;99.90;;;;;;6188611;23;20176;-82
2022/03/25 04:53:03;;;;;;;59.30;40.47;;;9.70;99.90;;;;;;6200384;22;20206;-78
2022/03/25 04:55:29;;;;;;;59.93;40.47;;;9.60;99.90;;;;;;6201499;23;20145;-80
2022/03/25 04:57:55;;;;;;;62.27;41.07;;;9.70;99.90;;;;;;6189049;23;20133;-81
2022/03/25 05:00:28;;;;;;;60.83;40.70;;;9.60;99.90;;;;;;6187849;23;20175;-81
2022/03/25 05:02:54;;;;;;;63.70;40.07;;;9.50;1.00;;;;;;6188014;23;20189;-82
2022/03/25 05:05:19;;;;;;;57.07;41.33;;;9.50;1.00;;;;;;6161748;23;20152;-81
2022/03/25 05:07:47;;;;;;;63.90;40.07;;;9.40;1.00;;;;;;6189754;23;20145;-82
2022/03/25 05:10:14;;;;;;;60.17;40.60;;;9.40;1.00;;;;;;6204345;23;20138;-78
2022/03/25 05:12:41;;;;;;;58.00;39.07;;;9.50;1.00;;;;;;6206196;23;20177;-80
2022/03/25 05:15:13;;;;;;;64.20;40.80;;;9.40;1.00;;;;;;6201216;23;20630;-83
2022/03/25 05:17:54;;;;;;;60.33;40.93;;;9.40;99.90;;;;;;6187277;23;20141;-82
2022/03/25 05:20:21;;;;;;;61.20;40.03;;;9.40;1.00;;;;;;6186906;23;20142;-82
2022/03/25 05:22:48;;;;;;;62.20;40.43;;;9.40;1.00;;;;;;6186446;23;20177;-83
2022/03/25 05:25:16;;;;;;;62.27;42.27;;;9.40;1.00;;;;;;6186725;23;20152;-80
2022/03/25 05:27:50;;;;;;;59.93;40.30;;;9.40;1.00;;;;;;6186025;23;20216;-82
2022/03/25 05:30:25;;;;;;;63.30;40.03;;;9.40;1.00;;;;;;6186468;23;20141;-83
2022/03/25 05:32:51;;;;;;;61.87;40.90;;;9.40;99.90;;;;;;6160255;23;20594;-83
2022/03/25 05:35:18;;;;;;;63.93;41.77;;;9.40;1.00;;;;;;6187065;23;20225;-84
2022/03/25 05:37:44;;;;;;;61.67;40.50;;;9.50;99.90;;;;;;6186799;23;20138;-81
2022/03/25 05:40:10;;;;;;;60.80;39.63;;;9.40;99.90;;;;;;6190241;23;20130;-83
2022/03/25 05:42:36;;;;;;;59.00;39.17;;;9.40;99.90;;;;;;6187794;23;20236;-84
2022/03/25 05:45:04;;;;;;;59.63;39.30;;;9.60;99.90;;;;;;6186830;23;20138;-83
2022/03/25 05:47:30;;;;;;;58.00;37.27;;;9.40;99.90;;;;;;6186507;23;20169;-83
2022/03/25 05:49:57;;;;;;;62.33;38.73;;;9.50;99.90;;;;;;6187117;23;20142;-84
2022/03/25 05:52:23;;;;;;;63.90;39.10;;;9.40;99.90;;;;;;6186384;23;20212;-83
2022/03/25 05:54:49;;;;;;;59.27;37.70;;;9.40;99.90;;;;;;6186135;23;20150;-83
2022/03/25 05:57:15;;;;;;;57.20;39.00;;;9.40;99.90;;;;;;6185904;23;20130;-80
2022/03/25 05:59:41;;;;;;;60.87;39.40;;;9.30;99.90;;;;;;6160224;23;20209;-82
2022/03/25 06:02:08;;;;;;;60.97;40.67;;;9.30;99.90;;;;;;6186652;23;20240;-83
2022/03/25 06:04:34;;;;;;;60.53;39.20;;;9.30;99.90;;;;;;6186113;23;20145;-83
2022/03/25 06:07:00;;;;;;;57.77;39.17;;;9.40;99.90;;;;;;6186626;23;20162;-83
2022/03/25 06:09:26;;;;;;;55.73;36.43;;;9.30;99.90;;;;;;6186549;23;20593;-84
2022/03/25 06:11:51;;;;;;;56.50;36.77;;;9.30;99.90;;;;;;6186233;23;20161;-82
2022/03/25 06:14:17;;;;;;;61.00;39.00;;;9.40;99.90;;;;;;6186988;23;20146;-84
2022/03/25 06:16:44;;;;;;;64.57;39.50;;;9.30;99.90;;;;;;6186511;23;20220;-83
2022/03/25 06:19:12;;;;;;;63.83;38.47;;;9.40;99.90;;;;;;6186917;23;20134;-83
2022/03/25 06:21:38;;;;;;;59.63;37.90;;;9.40;99.90;;;;;;6186442;23;20173;-82
2022/03/25 06:24:05;;;;;;;59.93;37.13;;;9.40;1.00;;;;;;6186724;23;20196;-86
2022/03/25 06:26:31;;;;;;;57.23;36.47;;;9.40;1.00;;;;;;6187105;23;20134;-84
2022/03/25 06:28:56;;;;;;;55.60;37.90;;;9.40;1.00;;;;;;6188716;23;20142;-84
2022/03/25 06:31:22;;;;;;;58.60;36.90;;;9.40;1.00;;;;;;6192970;23;20154;-84
2022/03/25 06:33:48;;;;;;;62.17;38.70;;;9.30;1.00;;;;;;6196751;23;20161;-82
2022/03/25 06:36:14;;;;;;;62.93;38.77;;;9.30;1.00;;;;;;6197460;23;20137;-82
2022/03/25 06:38:41;;;;;;;54.20;34.80;;;9.30;1.00;;;;;;6195860;23;20138;-83
2022/03/25 06:41:07;;;;;;;54.97;36.50;;;9.20;99.90;;;;;;6186115;23;20146;-82
2022/03/25 06:43:34;;;;;;;57.50;38.07;;;9.20;99.90;;;;;;6160111;23;20157;-84
2022/03/25 06:46:01;;;;;;;52.43;32.90;;;9.20;99.90;;;;;;6186714;23;20225;-82
2022/03/25 06:48:30;;;;;;;58.20;36.37;;;9.10;99.90;;;;;;6159192;23;20173;-78
2022/03/25 06:50:56;;;;;;;53.57;35.33;;;9.10;1.00;;;;;;6186777;23;20141;-80
2022/03/25 06:53:22;;;;;;;53.30;33.90;;;9.10;99.90;;;;;;6159144;23;20228;-79
2022/03/25 06:55:48;;;;;;;55.80;34.33;;;9.10;99.90;;;;;;6185828;23;20162;-82
2022/03/25 06:58:14;;;;;;;56.73;36.63;;;9.10;99.90;;;;;;6186074;23;20157;-83
2022/03/25 07:00:40;;;;;;;52.70;33.97;;;9.10;1.00;;;;;;6186082;23;20145;-85
2022/03/25 07:03:06;;;;;;;58.90;36.03;;;9.20;1.00;;;;;;6186131;23;20177;-83
2022/03/25 07:05:32;;;;;;;55.90;35.50;;;9.20;1.00;;;;;;6185528;23;20145;-83
2022/03/25 07:07:58;;;;;;;52.93;34.80;;;9.20;99.90;;;;;;6186855;23;20216;-82
2022/03/25 07:10:26;;;;;;;51.97;34.37;;;9.20;1.00;;;;;;6187531;23;20567;-82
2022/03/25 07:12:53;;;;;;;56.63;35.63;;;9.20;99.90;;;;;;6200221;23;20204;-81
2022/03/25 07:15:23;;;;;;;54.17;35.00;;;9.20;99.90;;;;;;6201556;23;20138;-79
2022/03/25 07:18:00;;;;;;;53.67;36.53;;;9.20;1.00;;;;;;6190001;23;20456;-81
2022/03/25 07:20:32;;;;;;;57.63;35.00;;;9.40;1.00;;;;;;6190146;23;20140;-81
2022/03/25 07:22:57;;;;;;;53.63;32.33;;;9.40;1.00;;;;;;6189571;23;20173;-81
2022/03/25 07:25:25;;;;;;;52.10;33.00;;;9.40;1.00;;;;;;6192180;23;20588;-83
2022/03/25 07:27:51;;;;;;;59.70;33.90;;;9.40;99.90;;;;;;6190450;23;20165;-82
2022/03/25 07:30:18;;;;;;;58.53;33.10;;;9.40;1.00;;;;;;6204411;23;20150;-79
2022/03/25 07:32:45;;;;;;;57.77;31.27;;;9.50;99.90;;;;;;6205181;23;20637;-80
2022/03/25 07:35:11;;;;;;;50.73;31.73;;;9.50;3.80;;;;;;6196706;23;20193;-81
2022/03/25 07:37:44;;;;;;;52.03;30.90;;;9.60;1.00;;;;;;6195401;23;20134;-79
2022/03/25 07:40:12;;;;;;;51.33;31.70;;;9.60;1.00;;;;;;6191959;23;20142;-81
2022/03/25 07:42:41;;;;;;;47.50;32.27;;;9.60;99.90;;;;;;6192558;23;20174;-82
2022/03/25 07:45:09;;;;;;;49.10;30.20;;;9.70;99.90;;;;;;6188588;23;20130;-84
2022/03/25 07:47:48;;;;;;;49.80;28.73;;;9.70;1.00;;;;;;6188574;23;20216;-83
2022/03/25 07:50:18;;;;;;;53.73;31.03;;;9.70;99.90;;;;;;6188010;23;20476;-82
2022/03/25 07:52:47;;;;;;;51.50;31.67;;;9.80;99.90;;;;;;6188484;23;20158;-84
2022/03/25 07:55:16;;;;;;;60.00;34.17;;;9.90;99.90;;;;;;6187071;23;20410;-83
2022/03/25 07:57:42;;;;;;;50.00;32.30;;;10.00;99.90;;;;;;6187391;23;20130;-81
2022/03/25 08:00:13;;;;;;;52.20;33.77;;;10.10;8.90;;;;;;6188013;23;20207;-83
2022/03/25 08:02:44;;;;;;;51.87;32.53;;;10.10;1.00;;;;;;6187748;23;20193;-83
2022/03/25 08:05:10;;;;;;;48.40;30.60;;;10.30;1.00;;;;;;6187157;23;20138;-79
2022/03/25 08:07:44;;;;;;;48.40;31.43;;;10.40;1.00;;;;;;6186579;23;20138;-83
2022/03/25 08:10:10;;;;;;;48.63;29.63;;;10.40;1.00;;;;;;6186199;23;20150;-84
2022/03/25 08:12:37;;;;;;;49.97;33.67;;;10.40;99.90;;;;;;6187062;23;20154;-79
2022/03/25 08:15:07;;;;;;;51.73;33.13;;;10.50;99.90;;;;;;6187214;23;20183;-83
2022/03/25 08:17:57;;;;;;;49.50;33.27;;;10.50;99.90;;;;;;6160891;23;20622;-84
2022/03/25 08:20:25;;;;;;;55.37;35.20;;;10.50;99.90;;;;;;6187541;23;20199;-81
2022/03/25 08:22:52;;;;;;;53.50;34.83;;;10.60;99.90;;;;;;6187484;23;20185;-83
2022/03/25 08:28:02;;;;;;;52.57;34.83;;;10.80;99.90;;;;;;6188072;23;20523;-84
2022/03/25 08:30:29;;;;;;;57.67;34.87;;;10.90;99.90;;;;;;6187699;23;20134;-82
2022/03/25 08:32:56;;;;;;;59.80;38.53;;;10.90;99.90;;;;;;6188441;23;20150;-82
2022/03/25 08:35:22;;;;;;;58.23;37.90;;;10.90;99.90;;;;;;6188294;23;20551;-79
2022/03/25 08:37:49;;;;;;;57.30;38.37;;;11.00;99.90;;;;;;6162919;23;20150;-76
2022/03/25 08:40:14;;;;;;;61.60;38.70;;;11.20;99.90;;;;;;6187566;23;20576;-80
2022/03/25 08:42:40;;;;;;;67.30;40.03;;;11.30;99.90;;;;;;6188036;23;20229;-84
2022/03/25 08:45:06;;;;;;;67.17;41.13;;;11.40;99.90;;;;;;6188928;23;20134;-82
2022/03/25 08:47:32;;;;;;;65.33;40.50;;;11.50;99.90;;;;;;6186489;23;20213;-82
2022/03/25 08:49:57;;;;;;;61.60;39.57;;;11.70;93.40;;;;;;6187223;23;20135;-83
2022/03/25 08:52:23;;;;;;;64.83;41.70;;;11.70;54.70;;;;;;6187253;23;20148;-83
2022/03/25 08:54:49;;;;;;;66.33;43.27;;;11.90;39.10;;;;;;6202049;23;20197;-79
2022/03/25 08:57:15;;;;;;;60.40;41.20;;;12.00;1.00;;;;;;6207184;23;20201;-77
2022/03/25 08:59:40;;;;;;;62.47;43.87;;;12.00;1.00;;;;;;6207651;23;20144;-81
2022/03/25 09:02:06;;;;;;;63.83;43.03;;;12.00;1.00;;;;;;6206508;23;20201;-77
2022/03/25 09:04:32;;;;;;;69.27;44.13;;;12.30;1.00;;;;;;6205451;23;20137;-78
2022/03/25 09:06:58;;;;;;;66.77;41.20;;;12.30;1.00;;;;;;6203611;23;20173;-77
2022/03/25 09:09:23;;;;;;;66.93;42.33;;;12.40;1.00;;;;;;6203631;23;20524;-81
2022/03/25 09:11:49;;;;;;;61.53;41.43;;;12.30;1.00;;;;;;6202962;23;20169;-81
2022/03/25 09:14:15;;;;;;;70.60;44.07;;;12.40;1.00;;;;;;6204964;23;20149;-80
2022/03/25 09:16:41;;;;;;;65.90;42.13;;;12.50;1.00;;;;;;6206841;23;20134;-77
2022/03/25 09:19:06;;;;;;;63.93;41.57;;;12.60;1.00;;;;;;6178721;23;20147;-82
2022/03/25 09:21:32;;;;;;;58.23;40.03;;;12.70;1.00;;;;;;6195418;23;20174;-83
2022/03/25 09:23:58;;;;;;;59.53;39.00;;;12.80;1.00;;;;;;6201117;23;20138;-79
2022/03/25 09:26:25;;;;;;;61.70;41.53;;;12.90;1.00;;;;;;6207502;23;20141;-81
2022/03/25 09:28:51;;;;;;;55.27;38.83;;;13.10;1.00;;;;;;6196193;23;20209;-83
2022/03/25 09:31:17;;;;;;;61.07;39.57;;;13.20;1.00;;;;;;6195119;23;20157;-77
2022/03/25 09:33:42;;;;;;;64.17;40.03;;;13.10;1.00;;;;;;6207761;23;20142;-76
2022/03/25 09:36:08;;;;;;;60.43;40.37;;;13.10;1.00;;;;;;6205975;23;20134;-85
2022/03/25 09:38:34;;;;;;;59.27;37.00;;;13.20;1.00;;;;;;6204705;23;20194;-81
2022/03/25 09:41:04;;;;;;;59.37;40.60;;;13.30;1.00;;;;;;6210586;23;20117;-81
2022/03/25 09:43:30;;;;;;;60.77;39.33;;;13.30;1.00;;;;;;6210485;23;20143;-84
2022/03/25 09:46:10;;;;;;;67.03;41.50;;;13.30;1.00;;;;;;6182619;23;20142;-76
2022/03/25 09:48:36;;;;;;;56.53;39.07;;;13.50;1.00;;;;;;6210211;23;20173;-83
2022/03/25 09:51:01;;;;;;;64.37;41.93;;;13.70;1.00;;;;;;6191554;23;20579;-84
2022/03/25 09:53:29;;;;;;;57.13;37.37;;;13.80;1.00;;;;;;6192809;23;20135;-84
2022/03/25 09:55:55;;;;;;;56.07;37.37;;;13.90;1.00;;;;;;6206164;23;20202;-80
2022/03/25 09:58:23;;;;;;;52.63;36.10;;;13.80;1.00;;;;;;6211536;22;20142;-78
2022/03/25 10:00:52;;;;;;;51.23;34.77;;;13.80;1.00;;;;;;6177940;23;20143;-83
2022/03/25 10:03:37;;;;;;;53.83;34.27;;;13.70;1.00;;;;;;6210405;22;20178;-78
2022/03/25 10:06:15;;;;;;;48.80;32.90;;;13.70;1.00;;;;;;6207246;23;20138;-84
2022/03/25 10:08:59;;;;;;;41.33;28.80;;;13.60;1.00;;;;;;6197586;23;20133;-81
2022/03/25 10:11:31;;;;;;;41.27;27.33;;;13.60;1.00;;;;;;6206363;23;20121;-76
2022/03/25 10:14:33;;;;;;;37.47;25.77;;;13.70;1.00;;;;;;6208017;23;20193;-82
2022/03/25 10:17:09;;;;;;;45.07;30.63;;;13.90;1.00;;;;;;6082943;23;20163;-83
2022/03/25 10:19:47;;;;;;;47.93;28.87;;;14.00;1.00;;;;;;6178575;23;20168;-82
2022/03/25 10:22:17;;;;;;;40.63;27.17;;;14.20;1.00;;;;;;6195966;23;20181;-84
2022/03/25 10:24:48;;;;;;;39.07;25.73;;;14.10;1.00;;;;;;6196472;23;20165;-83
2022/03/25 10:27:19;;;;;;;38.37;24.23;;;14.10;1.00;;;;;;6193254;23;20149;-86
2022/03/25 10:29:47;;;;;;;39.73;23.90;;;14.10;1.00;;;;;;6190573;23;20205;-81
2022/03/25 10:32:25;;;;;;;35.37;23.70;;;14.20;1.00;;;;;;6195971;22;20149;-78
2022/03/25 10:35:11;;;;;;;36.23;24.40;;;14.30;1.00;;;;;;6196541;23;20199;-82
2022/03/25 10:37:57;;;;;;;37.87;24.83;;;14.40;1.00;;;;;;6189939;23;20255;-84
2022/03/25 10:40:23;;;;;;;36.37;22.97;;;14.50;1.00;;;;;;6189504;23;20139;-84
2022/03/25 10:43:09;;;;;;;32.97;24.33;;;14.50;1.00;;;;;;6188730;23;20187;-85
2022/03/25 10:45:41;;;;;;;29.43;19.13;;;14.60;1.00;;;;;;6197943;23;20120;-81
2022/03/25 10:48:21;;;;;;;30.57;20.10;;;14.60;99.90;;;;;;6197647;23;20170;-83
2022/03/25 10:51:07;;;;;;;31.27;18.77;;;14.60;99.90;;;;;;6192470;23;20144;-81
2022/03/25 10:53:35;;;;;;;27.90;16.63;;;14.60;99.90;;;;;;6205734;23;20166;-82
2022/03/25 10:56:06;;;;;;;29.30;22.07;;;14.50;99.90;;;;;;6193962;23;20141;-83
2022/03/25 10:58:34;;;;;;;33.60;20.43;;;14.60;99.90;;;;;;6195733;23;20136;-79
2022/03/25 11:01:02;;;;;;;27.37;17.80;;;14.70;99.90;;;;;;6202323;23;20148;-84
2022/03/25 11:03:29;;;;;;;24.63;15.50;;;14.80;99.90;;;;;;6205968;23;20206;-76
2022/03/25 11:05:55;;;;;;;27.47;18.17;;;14.70;99.90;;;;;;6181628;23;20142;-84
2022/03/25 11:08:22;;;;;;;28.67;17.97;;;14.80;99.90;;;;;;6205028;23;20139;-79
2022/03/25 11:10:49;;;;;;;28.00;16.23;;;14.80;99.90;;;;;;6193024;23;20178;-79
2022/03/25 11:13:22;;;;;;;21.33;14.77;;;14.80;99.90;;;;;;6194090;23;20160;-84
2022/03/25 11:15:50;;;;;;;26.23;17.77;;;14.90;99.90;;;;;;6166077;23;20593;-82
2022/03/25 11:18:19;;;;;;;24.60;16.33;;;15.00;99.90;;;;;;6187900;23;20228;-78
2022/03/25 11:20:46;;;;;;;28.50;19.67;;;15.10;99.90;;;;;;6189001;23;20178;-81
2022/03/25 11:23:21;;;;;;;30.13;18.67;;;15.10;99.90;;;;;;6189338;23;20190;-82
2022/03/25 11:25:52;;;;;;;29.67;17.87;;;15.20;99.90;;;;;;6189250;23;20196;-83
2022/03/25 11:28:27;;;;;;;26.17;16.63;;;15.20;99.90;;;;;;6187668;23;20169;-84
2022/03/25 11:31:04;;;;;;;27.07;18.73;;;15.40;99.90;;;;;;6186137;23;20166;-82
2022/03/25 11:33:31;;;;;;;27.77;18.93;;;15.40;99.90;;;;;;6188641;23;20190;-83
2022/03/25 11:36:19;;;;;;;30.80;20.10;;;15.40;99.90;;;;;;6188753;23;20145;-84
2022/03/25 11:38:45;;;;;;;24.83;17.97;;;15.50;99.90;;;;;;6187460;23;20590;-85
2022/03/25 11:41:23;;;;;;;29.83;18.40;;;15.60;99.90;;;;;;6187629;23;20192;-84
2022/03/25 11:44:24;;;;;;;26.80;17.03;;;15.70;99.90;;;;;;6187339;23;20138;-76
2022/03/25 11:47:00;;;;;;;25.33;17.70;;;15.80;99.90;;;;;;6186975;23;20165;-82
2022/03/25 11:49:38;;;;;;;27.87;17.47;;;15.90;99.90;;;;;;6187979;23;20181;-82
2022/03/25 11:52:22;;;;;;;26.63;18.43;;;15.90;99.90;;;;;;6198729;23;20169;-78
2022/03/25 11:54:59;;;;;;;25.00;17.17;;;15.90;99.90;;;;;;6173028;23;20181;-78
2022/03/25 11:57:32;;;;;;;26.47;17.97;;;15.90;99.90;;;;;;6191716;23;20133;-78
2022/03/25 12:00:11;;;;;;;23.50;15.87;;;16.10;99.90;;;;;;6188970;23;20138;-83
2022/03/25 12:02:42;;;;;;;24.03;16.60;;;16.20;99.90;;;;;;6190021;23;20195;-82
2022/03/25 12:05:45;;;;;;;27.63;17.07;;;16.10;99.90;;;;;;6139261;23;20547;-83
2022/03/25 12:08:32;;;;;;;28.33;17.30;;;16.00;99.90;;;;;;6201612;23;20140;-84
2022/03/25 12:11:00;;;;;;;22.20;16.27;;;16.10;99.90;;;;;;6171639;23;20146;-83
2022/03/25 12:16:48;;;;;;;26.10;14.87;;;16.20;99.90;;;;;;6187806;23;20598;-82
2022/03/25 12:19:44;;;;;;;28.17;16.60;;;16.20;99.90;;;;;;6188547;23;20145;-82
2022/03/25 12:22:28;;;;;;;22.43;15.73;;;16.10;99.90;;;;;;6164380;23;20193;-83
2022/03/25 12:25:08;;;;;;;24.10;15.47;;;16.20;99.90;;;;;;6203615;23;20137;-81
2022/03/25 12:27:34;;;;;;;23.53;14.93;;;16.30;99.90;;;;;;6198604;23;20141;-84
2022/03/25 12:30:01;;;;;;;23.37;15.33;;;16.40;99.90;;;;;;6188072;23;20142;-80
2022/03/25 12:32:33;;;;;;;28.63;16.10;;;16.50;99.90;;;;;;6187850;23;20146;-84
2022/03/25 12:35:03;;;;;;;23.43;15.87;;;16.50;99.90;;;;;;6188361;23;20152;-85
2022/03/25 12:37:35;;;;;;;21.03;15.63;;;16.30;99.90;;;;;;6188624;23;20138;-83
2022/03/25 12:40:29;;;;;;;22.83;15.77;;;16.40;99.90;;;;;;6188225;23;20138;-85
2022/03/25 12:42:59;;;;;;;24.50;15.83;;;16.60;99.90;;;;;;6188911;23;20177;-83
2022/03/25 12:45:29;;;;;;;23.63;14.90;;;16.70;99.90;;;;;;6187282;23;20220;-82
2022/03/25 12:47:55;;;;;;;23.87;15.30;;;16.80;99.90;;;;;;6187171;23;20630;-82
2022/03/25 12:50:23;;;;;;;24.63;16.43;;;16.60;99.90;;;;;;6184913;23;20149;-82